Aérodrome :
LOGIN :

S'inscrire | Disclaimer

   EN    FR    IT 

 










Légende :    VFR   VFR Marginal   IFR   IFR Intensif   IFR Très Intensif
Visi : 
Plafond : 
>= 8 km
>= 3000ft
5 à 8 km
1000 à 3000 ft
1500m à 5 km
500 à 1000 ft
800 à 1500m
200 à 500 ft
< 800m
< 200 ft
Symboles :   Orages  Brouillard  Fortes neiges  Fortes précipitations  Vent > 20 kt
SIGMETs :   Divers  Orages  Givrage  Turbulence  Onde Orograph.  Cendres Volcan.






- Altitude de l'aérodrome : 138 ft
- Code IATA : RLG


ETNL - Rostock Laage

DERNIER METAR :
  • 071820Z 25014 9999 SCT050 07/05 Q1007 BLU+

METARs EXPIRÉS :
  • 071720Z 25011KT 9999 FEW050 BKN320 07/05 Q1006 BLU+
  • 071620Z 27014KT 9999 FEW050 SCT320 07/04 Q1006 BLU+

TAF TAF ETNL
Valide du 07 à 18h jusqu'au 08 à 06h UTC


071710Z 0718/0806 25015G25KT 9000 NSW SCT012 BKN030
TEMPO 0718/0806 27020G30KT 4000 SHRA BKN010TCU
PROB30 0800/0806 270012KT 3000 BR BKN005 BY ETGL



MET'MAP, la Météo Aéronautique d'un coup d'oeil ! - Copyright ORBIFLY Décembre 2007 - Disclaimer

ORBIFLY MET'MAP TEAM :

Programmation & Développement : Alexandra Zaïnal
Sur une idée originale de : Baudouin d'Aumeries
Assistance à la programmation : Marc-Olivier Méhu
Soutien technique & logistique : Manuel Goepfert

Contact : metmap@orbifly.com




SOURCES & CREDITS :

   NOAA